Fairview, Texas
Current Conditions -  °F | °C
As of 7:53 PM on Wednesday 26 Nov 2014 (Local Time) from KTKI Reporting Station
Clear Clear  
Wind Chill: 51°   Ceiling: Unl
Heat Index: 51°   Visibility: 10mi
Dew Point: 34°   Wind: 8mph
Humidity: 52%   Direction: 340°NNW
Pressure: 30.3"   Gusts: NA
Location:  33.202°N, 96.6182°W
Report Text: KTKI 270153Z 34007KT 10SM CLR 11/01 A3030 RMK AO2 SLP271 T01060011
Loading
Personal Weather Stations






























Interactive Weather Map New forecast layout! Learn more

10-Day Weather Forecast

Advertisements
Track Severe Weather on mobile